sensor_id;sensor_type;location;lat;lon;timestamp;temperature;humidity
65995;HTU21D;52764;51.036;5.852;2024-02-15T15:15:03;17.43;81.33
65995;HTU21D;52764;51.036;5.852;2024-02-15T15:17:30;17.61;78.49
65995;HTU21D;52764;51.036;5.852;2024-02-15T15:19:56;17.83;75.46
65995;HTU21D;52764;51.036;5.852;2024-02-15T15:22:22;18.05;72.69
65995;HTU21D;52764;51.036;5.852;2024-02-15T15:24:47;18.26;70.52
65995;HTU21D;52764;51.036;5.852;2024-02-15T15:27:13;18.51;68.61
65995;HTU21D;52764;51.036;5.852;2024-02-15T15:29:40;18.70;61.09
65995;HTU21D;52764;51.036;5.852;2024-02-15T15:32:06;18.79;65.27
65995;HTU21D;52764;51.036;5.852;2024-02-15T15:34:33;18.92;64.14
65995;HTU21D;52764;51.036;5.852;2024-02-15T15:37:00;19.00;63.09
65995;HTU21D;52764;51.036;5.852;2024-02-15T15:39:26;18.99;62.47
65995;HTU21D;52764;51.036;5.852;2024-02-15T15:41:54;18.95;62.25
65995;HTU21D;52764;51.036;5.852;2024-02-15T15:44:20;18.86;61.90
65995;HTU21D;52764;51.036;5.852;2024-02-15T15:46:48;18.78;61.60
65995;HTU21D;52764;51.036;5.852;2024-02-15T15:49:14;18.66;61.68
65995;HTU21D;52764;51.036;5.852;2024-02-15T15:51:42;18.50;62.01
65995;HTU21D;52764;51.036;5.852;2024-02-15T15:54:08;18.40;62.21
65995;HTU21D;52764;51.036;5.852;2024-02-15T15:56:33;18.38;62.21
65995;HTU21D;52764;51.036;5.852;2024-02-15T15:58:59;18.35;61.99
65995;HTU21D;52764;51.036;5.852;2024-02-15T16:01:25;18.34;62.03
65995;HTU21D;52764;51.036;5.852;2024-02-15T16:03:51;18.27;62.00
65995;HTU21D;52764;51.036;5.852;2024-02-15T16:06:18;18.19;62.20
65995;HTU21D;52764;51.036;5.852;2024-02-15T16:08:44;18.13;62.47
65995;HTU21D;52764;51.036;5.852;2024-02-15T16:11:11;18.02;63.25
65995;HTU21D;52764;51.036;5.852;2024-02-15T16:13:39;17.93;62.92
65995;HTU21D;52764;51.036;5.852;2024-02-15T16:16:06;17.89;63.15
65995;HTU21D;52764;51.036;5.852;2024-02-15T16:18:33;17.80;63.39
65995;HTU21D;52764;51.036;5.852;2024-02-15T16:20:59;17.65;63.65
65995;HTU21D;52764;51.036;5.852;2024-02-15T16:23:25;17.59;64.08
65995;HTU21D;52764;51.036;5.852;2024-02-15T16:25:51;17.45;63.93
65995;HTU21D;52764;51.036;5.852;2024-02-15T16:28:16;17.35;64.53
65995;HTU21D;52764;51.036;5.852;2024-02-15T16:30:42;17.28;64.86
65995;HTU21D;52764;51.036;5.852;2024-02-15T16:33:09;17.06;64.69
65995;HTU21D;52764;51.036;5.852;2024-02-15T16:35:35;17.05;65.27
65995;HTU21D;52764;51.036;5.852;2024-02-15T16:38:03;17.01;65.27
65995;HTU21D;52764;51.036;5.852;2024-02-15T16:40:30;16.94;65.61
65995;HTU21D;52764;51.036;5.852;2024-02-15T16:42:57;16.88;65.85
65995;HTU21D;52764;51.036;5.852;2024-02-15T16:45:23;16.81;66.09
65995;HTU21D;52764;51.036;5.852;2024-02-15T16:47:53;16.72;66.50
65995;HTU21D;52764;51.036;5.852;2024-02-15T16:50:25;16.72;66.81
65995;HTU21D;52764;51.036;5.852;2024-02-15T16:52:50;16.76;66.78
65995;HTU21D;52764;51.036;5.852;2024-02-15T16:55:17;16.76;67.08
65995;HTU21D;52764;51.036;5.852;2024-02-15T16:57:44;16.72;67.45
65995;HTU21D;52764;51.036;5.852;2024-02-15T17:00:11;16.72;67.58
65995;HTU21D;52764;51.036;5.852;2024-02-15T17:02:41;16.71;67.97
65995;HTU21D;52764;51.036;5.852;2024-02-15T17:05:07;16.73;68.18
65995;HTU21D;52764;51.036;5.852;2024-02-15T17:07:33;16.72;68.32
65995;HTU21D;52764;51.036;5.852;2024-02-15T17:10:00;14.41;68.58
65995;HTU21D;52764;51.036;5.852;2024-02-15T17:12:26;16.75;68.85
65995;HTU21D;52764;51.036;5.852;2024-02-15T17:14:54;16.76;68.76
65995;HTU21D;52764;51.036;5.852;2024-02-15T17:17:19;16.76;68.91
65995;HTU21D;52764;51.036;5.852;2024-02-15T17:19:45;16.76;68.89
65995;HTU21D;52764;51.036;5.852;2024-02-15T17:22:11;16.75;68.80
65995;HTU21D;52764;51.036;5.852;2024-02-15T17:24:37;16.71;68.78
65995;HTU21D;52764;51.036;5.852;2024-02-15T17:27:06;16.63;68.86
65995;HTU21D;52764;51.036;5.852;2024-02-15T17:29:32;16.49;69.03
65995;HTU21D;52764;51.036;5.852;2024-02-15T17:31:58;16.43;69.59
65995;HTU21D;52764;51.036;5.852;2024-02-15T17:34:24;16.41;69.72
65995;HTU21D;52764;51.036;5.852;2024-02-15T17:36:49;16.29;69.71
65995;HTU21D;52764;51.036;5.852;2024-02-15T17:39:15;16.12;70.20
65995;HTU21D;52764;51.036;5.852;2024-02-15T17:41:42;16.11;70.64
65995;HTU21D;52764;51.036;5.852;2024-02-15T17:44:08;16.08;70.60
65995;HTU21D;52764;51.036;5.852;2024-02-15T17:46:34;13.15;70.73
65995;HTU21D;52764;51.036;5.852;2024-02-15T17:49:01;16.10;70.75
65995;HTU21D;52764;51.036;5.852;2024-02-15T17:51:27;16.08;70.68
65995;HTU21D;52764;51.036;5.852;2024-02-15T17:53:53;16.11;69.04
65995;HTU21D;52764;51.036;5.852;2024-02-15T17:56:20;16.12;70.39
65995;HTU21D;52764;51.036;5.852;2024-02-15T17:58:46;16.11;70.51
65995;HTU21D;52764;51.036;5.852;2024-02-15T18:01:15;16.14;70.54
65995;HTU21D;52764;51.036;5.852;2024-02-15T18:03:42;16.20;70.35
65995;HTU21D;52764;51.036;5.852;2024-02-15T18:06:08;16.21;70.17
65995;HTU21D;52764;51.036;5.852;2024-02-15T18:08:37;16.24;69.98
65995;HTU21D;52764;51.036;5.852;2024-02-15T18:11:03;16.20;69.67
65995;HTU21D;52764;51.036;5.852;2024-02-15T18:13:33;16.11;69.74
65995;HTU21D;52764;51.036;5.852;2024-02-15T18:16:00;16.02;69.36
65995;HTU21D;52764;51.036;5.852;2024-02-15T18:18:25;16.01;68.35
65995;HTU21D;52764;51.036;5.852;2024-02-15T18:20:51;16.00;67.52
65995;HTU21D;52764;51.036;5.852;2024-02-15T18:23:17;16.00;66.85
65995;HTU21D;52764;51.036;5.852;2024-02-15T18:25:46;15.98;66.27
65995;HTU21D;52764;51.036;5.852;2024-02-15T18:28:13;15.98;65.90
65995;HTU21D;52764;51.036;5.852;2024-02-15T18:30:40;16.01;65.54
65995;HTU21D;52764;51.036;5.852;2024-02-15T18:33:13;15.98;65.39
65995;HTU21D;52764;51.036;5.852;2024-02-15T18:35:51;15.96;65.34
65995;HTU21D;52764;51.036;5.852;2024-02-15T18:38:17;15.90;65.26
65995;HTU21D;52764;51.036;5.852;2024-02-15T18:40:43;15.85;65.30
65995;HTU21D;52764;51.036;5.852;2024-02-15T18:43:09;15.83;65.40
65995;HTU21D;52764;51.036;5.852;2024-02-15T18:45:35;15.78;65.48
65995;HTU21D;52764;51.036;5.852;2024-02-15T18:48:05;15.71;65.59
65995;HTU21D;52764;51.036;5.852;2024-02-15T18:50:32;15.70;65.62
65995;HTU21D;52764;51.036;5.852;2024-02-15T18:53:00;15.68;65.52
65995;HTU21D;52764;51.036;5.852;2024-02-15T18:55:26;15.69;65.38
65995;HTU21D;52764;51.036;5.852;2024-02-15T18:57:53;15.69;65.36
65995;HTU21D;52764;51.036;5.852;2024-02-15T19:00:20;15.72;65.07
65995;HTU21D;52764;51.036;5.852;2024-02-15T19:02:51;15.73;64.73
65995;HTU21D;52764;51.036;5.852;2024-02-15T19:05:18;15.72;64.69
65995;HTU21D;52764;51.036;5.852;2024-02-15T19:07:50;15.73;64.72
65995;HTU21D;52764;51.036;5.852;2024-02-15T19:10:20;15.73;64.66
65995;HTU21D;52764;51.036;5.852;2024-02-15T19:12:51;15.75;64.43
65995;HTU21D;52764;51.036;5.852;2024-02-15T19:15:19;15.66;64.51
65995;HTU21D;52764;51.036;5.852;2024-02-15T19:17:44;15.60;64.59
65995;HTU21D;52764;51.036;5.852;2024-02-15T19:20:13;15.57;64.80
65995;HTU21D;52764;51.036;5.852;2024-02-15T19:22:39;15.55;64.78
65995;HTU21D;52764;51.036;5.852;2024-02-15T19:25:05;15.55;64.98
65995;HTU21D;52764;51.036;5.852;2024-02-15T19:27:32;15.57;64.89
65995;HTU21D;52764;51.036;5.852;2024-02-15T19:29:57;15.58;64.65
65995;HTU21D;52764;51.036;5.852;2024-02-15T19:32:23;15.56;64.62
65995;HTU21D;52764;51.036;5.852;2024-02-15T19:34:50;15.51;64.59
65995;HTU21D;52764;51.036;5.852;2024-02-15T19:37:16;15.46;64.64
65995;HTU21D;52764;51.036;5.852;2024-02-15T19:39:43;15.43;64.69
65995;HTU21D;52764;51.036;5.852;2024-02-15T19:42:08;15.37;64.88
65995;HTU21D;52764;51.036;5.852;2024-02-15T19:44:36;15.36;65.06
65995;HTU21D;52764;51.036;5.852;2024-02-15T19:47:02;15.34;65.19
65995;HTU21D;52764;51.036;5.852;2024-02-15T19:49:30;15.32;65.24
65995;HTU21D;52764;51.036;5.852;2024-02-15T19:52:03;15.31;65.30
65995;HTU21D;52764;51.036;5.852;2024-02-15T19:54:31;15.28;65.32
65995;HTU21D;52764;51.036;5.852;2024-02-15T19:57:00;15.26;65.40
65995;HTU21D;52764;51.036;5.852;2024-02-15T19:59:27;15.25;65.51
65995;HTU21D;52764;51.036;5.852;2024-02-15T20:01:53;15.27;65.54
65995;HTU21D;52764;51.036;5.852;2024-02-15T20:04:20;15.29;65.66
65995;HTU21D;52764;51.036;5.852;2024-02-15T20:06:46;15.30;65.66
65995;HTU21D;52764;51.036;5.852;2024-02-15T20:09:13;15.32;65.64
65995;HTU21D;52764;51.036;5.852;2024-02-15T20:11:40;15.36;65.67
65995;HTU21D;52764;51.036;5.852;2024-02-15T20:14:06;15.33;65.57
65995;HTU21D;52764;51.036;5.852;2024-02-15T20:16:32;15.34;65.50
65995;HTU21D;52764;51.036;5.852;2024-02-15T20:18:59;15.38;65.45
65995;HTU21D;52764;51.036;5.852;2024-02-15T20:21:34;15.39;65.33
65995;HTU21D;52764;51.036;5.852;2024-02-15T20:24:02;15.41;65.25
65995;HTU21D;52764;51.036;5.852;2024-02-15T20:26:31;15.45;58.43
65995;HTU21D;52764;51.036;5.852;2024-02-15T20:28:57;15.44;65.15
65995;HTU21D;52764;51.036;5.852;2024-02-15T20:31:23;15.42;65.11
65995;HTU21D;52764;51.036;5.852;2024-02-15T20:33:49;15.38;65.08
65995;HTU21D;52764;51.036;5.852;2024-02-15T20:36:15;15.32;65.06
65995;HTU21D;52764;51.036;5.852;2024-02-15T20:38:40;15.29;65.26
65995;HTU21D;52764;51.036;5.852;2024-02-15T20:41:06;15.26;65.33
65995;HTU21D;52764;51.036;5.852;2024-02-15T20:43:35;15.24;65.62
65995;HTU21D;52764;51.036;5.852;2024-02-15T20:46:04;15.19;65.85
65995;HTU21D;52764;51.036;5.852;2024-02-15T20:48:30;15.12;66.03
65995;HTU21D;52764;51.036;5.852;2024-02-15T20:50:56;14.98;66.52
65995;HTU21D;52764;51.036;5.852;2024-02-15T20:53:24;14.92;66.98
65995;HTU21D;52764;51.036;5.852;2024-02-15T20:55:50;14.88;67.31
65995;HTU21D;52764;51.036;5.852;2024-02-15T20:58:17;14.79;67.65
65995;HTU21D;52764;51.036;5.852;2024-02-15T21:00:42;14.70;68.03
65995;HTU21D;52764;51.036;5.852;2024-02-15T21:03:08;14.67;68.36
65995;HTU21D;52764;51.036;5.852;2024-02-15T21:05:34;14.59;65.17
65995;HTU21D;52764;51.036;5.852;2024-02-15T21:07:59;14.51;68.92
65995;HTU21D;52764;51.036;5.852;2024-02-15T21:10:26;14.42;69.30
65995;HTU21D;52764;51.036;5.852;2024-02-15T21:12:55;14.34;69.66
65995;HTU21D;52764;51.036;5.852;2024-02-15T21:15:25;14.22;70.00
65995;HTU21D;52764;51.036;5.852;2024-02-15T21:17:52;14.11;70.39
65995;HTU21D;52764;51.036;5.852;2024-02-15T21:20:18;13.99;70.84
65995;HTU21D;52764;51.036;5.852;2024-02-15T21:22:47;13.96;71.10
65995;HTU21D;52764;51.036;5.852;2024-02-15T21:25:15;13.92;71.25
65995;HTU21D;52764;51.036;5.852;2024-02-15T21:27:42;13.86;71.45
65995;HTU21D;52764;51.036;5.852;2024-02-15T21:30:09;13.86;71.48
65995;HTU21D;52764;51.036;5.852;2024-02-15T21:32:34;8.58;71.55
65995;HTU21D;52764;51.036;5.852;2024-02-15T21:35:01;13.78;71.59
65995;HTU21D;52764;51.036;5.852;2024-02-15T21:37:27;13.80;71.78
65995;HTU21D;52764;51.036;5.852;2024-02-15T21:39:53;13.84;71.64
65995;HTU21D;52764;51.036;5.852;2024-02-15T21:42:19;13.92;71.66
65995;HTU21D;52764;51.036;5.852;2024-02-15T21:44:48;14.03;71.31
65995;HTU21D;52764;51.036;5.852;2024-02-15T21:47:14;14.09;70.92
65995;HTU21D;52764;51.036;5.852;2024-02-15T21:49:41;14.12;70.77
65995;HTU21D;52764;51.036;5.852;2024-02-15T21:52:07;14.13;70.64
65995;HTU21D;52764;51.036;5.852;2024-02-15T21:54:39;14.10;70.54
65995;HTU21D;52764;51.036;5.852;2024-02-15T21:57:05;14.08;70.64
65995;HTU21D;52764;51.036;5.852;2024-02-15T21:59:36;14.10;70.52
65995;HTU21D;52764;51.036;5.852;2024-02-15T22:02:02;14.11;70.52
65995;HTU21D;52764;51.036;5.852;2024-02-15T22:04:34;14.12;70.42
65995;HTU21D;52764;51.036;5.852;2024-02-15T22:07:00;14.11;70.36
65995;HTU21D;52764;51.036;5.852;2024-02-15T22:09:26;14.13;70.29
65995;HTU21D;52764;51.036;5.852;2024-02-15T22:11:52;14.17;70.23
65995;HTU21D;52764;51.036;5.852;2024-02-15T22:14:17;14.19;70.13
65995;HTU21D;52764;51.036;5.852;2024-02-15T22:16:43;14.27;70.00
65995;HTU21D;52764;51.036;5.852;2024-02-15T22:19:09;14.37;69.70
65995;HTU21D;52764;51.036;5.852;2024-02-15T22:21:34;14.40;69.49
65995;HTU21D;52764;51.036;5.852;2024-02-15T22:24:01;14.47;69.29
65995;HTU21D;52764;51.036;5.852;2024-02-15T22:26:26;14.50;69.17
65995;HTU21D;52764;51.036;5.852;2024-02-15T22:28:52;14.51;69.13
65995;HTU21D;52764;51.036;5.852;2024-02-15T22:31:19;14.52;69.02
65995;HTU21D;52764;51.036;5.852;2024-02-15T22:33:45;14.56;68.88
65995;HTU21D;52764;51.036;5.852;2024-02-15T22:36:28;14.63;68.82
65995;HTU21D;52764;51.036;5.852;2024-02-15T22:38:54;14.72;68.45
65995;HTU21D;52764;51.036;5.852;2024-02-15T22:41:21;14.82;68.30
65995;HTU21D;52764;51.036;5.852;2024-02-15T22:43:47;14.88;67.92
65995;HTU21D;52764;51.036;5.852;2024-02-15T22:46:14;14.97;67.88
65995;HTU21D;52764;51.036;5.852;2024-02-15T22:48:40;15.04;67.62
65995;HTU21D;52764;51.036;5.852;2024-02-15T22:51:11;15.06;67.18
65995;HTU21D;52764;51.036;5.852;2024-02-15T22:53:41;15.09;66.85
65995;HTU21D;52764;51.036;5.852;2024-02-15T22:56:11;15.10;66.58
65995;HTU21D;52764;51.036;5.852;2024-02-15T22:58:40;15.15;66.59
65995;HTU21D;52764;51.036;5.852;2024-02-15T23:01:06;15.17;66.33
65995;HTU21D;52764;51.036;5.852;2024-02-15T23:03:37;15.22;65.98
65995;HTU21D;52764;51.036;5.852;2024-02-15T23:06:05;11.43;65.75
65995;HTU21D;52764;51.036;5.852;2024-02-15T23:08:34;15.28;66.99
65995;HTU21D;52764;51.036;5.852;2024-02-15T23:11:01;15.31;65.54
65995;HTU21D;52764;51.036;5.852;2024-02-15T23:13:27;15.37;65.03
65995;HTU21D;52764;51.036;5.852;2024-02-15T23:15:53;15.33;64.95
65995;HTU21D;52764;51.036;5.852;2024-02-15T23:18:20;15.36;64.81
65995;HTU21D;52764;51.036;5.852;2024-02-15T23:20:46;15.32;64.79
65995;HTU21D;52764;51.036;5.852;2024-02-15T23:23:15;15.37;64.82
65995;HTU21D;52764;51.036;5.852;2024-02-15T23:25:42;15.39;64.71
65995;HTU21D;52764;51.036;5.852;2024-02-15T23:28:09;15.40;64.63
65995;HTU21D;52764;51.036;5.852;2024-02-15T23:30:36;15.41;64.40
65995;HTU21D;52764;51.036;5.852;2024-02-15T23:33:02;15.43;64.47
65995;HTU21D;52764;51.036;5.852;2024-02-15T23:35:28;15.48;56.68
65995;HTU21D;52764;51.036;5.852;2024-02-15T23:37:58;15.48;64.09
65995;HTU21D;52764;51.036;5.852;2024-02-15T23:40:43;15.52;63.79
65995;HTU21D;52764;51.036;5.852;2024-02-15T23:43:09;15.48;63.67
65995;HTU21D;52764;51.036;5.852;2024-02-15T23:45:34;15.47;63.45
65995;HTU21D;52764;51.036;5.852;2024-02-15T23:48:01;15.44;63.60
65995;HTU21D;52764;51.036;5.852;2024-02-15T23:50:27;15.42;63.65
65995;HTU21D;52764;51.036;5.852;2024-02-15T23:52:54;15.38;63.66
65995;HTU21D;52764;51.036;5.852;2024-02-15T23:55:20;15.38;63.73
65995;HTU21D;52764;51.036;5.852;2024-02-15T23:57:46;15.37;63.74
